sensor_id;sensor_type;location;lat;lon;timestamp;P1;durP1;ratioP1;P2;durP2;ratioP2
7707;SDS011;3896;48.758;8.888;2022-10-16T00:01:24;1.87;;;1.00;;
7707;SDS011;3896;48.758;8.888;2022-10-16T00:03:51;1.93;;;1.00;;
7707;SDS011;3896;48.758;8.888;2022-10-16T00:06:18;0.80;;;0.80;;
7707;SDS011;3896;48.758;8.888;2022-10-16T00:08:45;3.30;;;1.10;;
7707;SDS011;3896;48.758;8.888;2022-10-16T00:11:16;2.33;;;1.20;;
7707;SDS011;3896;48.758;8.888;2022-10-16T00:13:50;1.60;;;0.90;;
7707;SDS011;3896;48.758;8.888;2022-10-16T00:16:19;1.97;;;1.07;;
7707;SDS011;3896;48.758;8.888;2022-10-16T00:18:45;0.57;;;0.57;;
7707;SDS011;3896;48.758;8.888;2022-10-16T00:21:12;1.00;;;1.00;;
7707;SDS011;3896;48.758;8.888;2022-10-16T00:23:40;3.23;;;1.00;;
7707;SDS011;3896;48.758;8.888;2022-10-16T00:26:07;2.33;;;0.70;;
7707;SDS011;3896;48.758;8.888;2022-10-16T00:28:35;4.80;;;1.00;;
7707;SDS011;3896;48.758;8.888;2022-10-16T00:31:04;1.43;;;0.87;;
7707;SDS011;3896;48.758;8.888;2022-10-16T00:33:31;2.47;;;1.00;;
7707;SDS011;3896;48.758;8.888;2022-10-16T00:35:58;2.47;;;0.90;;
7707;SDS011;3896;48.758;8.888;2022-10-16T00:38:24;1.63;;;0.77;;
7707;SDS011;3896;48.758;8.888;2022-10-16T00:40:50;3.23;;;0.90;;
7707;SDS011;3896;48.758;8.888;2022-10-16T00:46:22;0.60;;;0.60;;
7707;SDS011;3896;48.758;8.888;2022-10-16T00:48:51;0.73;;;0.73;;
7707;SDS011;3896;48.758;8.888;2022-10-16T00:51:22;0.60;;;0.60;;
7707;SDS011;3896;48.758;8.888;2022-10-16T00:53:50;4.10;;;0.80;;
7707;SDS011;3896;48.758;8.888;2022-10-16T00:56:16;0.90;;;0.70;;
7707;SDS011;3896;48.758;8.888;2022-10-16T00:58:42;12.37;;;2.73;;
7707;SDS011;3896;48.758;8.888;2022-10-16T01:01:08;0.80;;;0.80;;
7707;SDS011;3896;48.758;8.888;2022-10-16T01:03:35;0.80;;;0.80;;
7707;SDS011;3896;48.758;8.888;2022-10-16T01:13:58;1.07;;;0.90;;
7707;SDS011;3896;48.758;8.888;2022-10-16T01:19:12;3.77;;;1.00;;
7707;SDS011;3896;48.758;8.888;2022-10-16T01:21:44;1.17;;;1.00;;
7707;SDS011;3896;48.758;8.888;2022-10-16T01:32:10;1.80;;;1.23;;
7707;SDS011;3896;48.758;8.888;2022-10-16T01:34:50;1.53;;;1.20;;
7707;SDS011;3896;48.758;8.888;2022-10-16T01:37:33;2.57;;;1.20;;
7707;SDS011;3896;48.758;8.888;2022-10-16T01:40:05;2.30;;;1.13;;
7707;SDS011;3896;48.758;8.888;2022-10-16T01:42:35;2.83;;;1.40;;
7707;SDS011;3896;48.758;8.888;2022-10-16T01:45:08;1.37;;;1.27;;
7707;SDS011;3896;48.758;8.888;2022-10-16T01:47:38;1.73;;;1.30;;
7707;SDS011;3896;48.758;8.888;2022-10-16T01:50:05;1.80;;;1.70;;
7707;SDS011;3896;48.758;8.888;2022-10-16T01:52:37;2.07;;;1.27;;
7707;SDS011;3896;48.758;8.888;2022-10-16T01:55:06;1.50;;;1.40;;
7707;SDS011;3896;48.758;8.888;2022-10-16T01:57:34;1.63;;;1.40;;
7707;SDS011;3896;48.758;8.888;2022-10-16T02:00:05;1.30;;;1.20;;
7707;SDS011;3896;48.758;8.888;2022-10-16T02:02:35;2.40;;;1.33;;
7707;SDS011;3896;48.758;8.888;2022-10-16T02:05:04;1.73;;;1.50;;
7707;SDS011;3896;48.758;8.888;2022-10-16T02:07:36;2.27;;;1.23;;
7707;SDS011;3896;48.758;8.888;2022-10-16T02:10:02;1.37;;;1.27;;
7707;SDS011;3896;48.758;8.888;2022-10-16T02:12:29;1.43;;;1.30;;
7707;SDS011;3896;48.758;8.888;2022-10-16T02:14:58;2.07;;;1.70;;
7707;SDS011;3896;48.758;8.888;2022-10-16T02:17:24;2.63;;;1.47;;
7707;SDS011;3896;48.758;8.888;2022-10-16T02:19:51;1.13;;;1.13;;
7707;SDS011;3896;48.758;8.888;2022-10-16T02:22:24;2.33;;;1.20;;
7707;SDS011;3896;48.758;8.888;2022-10-16T02:30:18;1.50;;;1.40;;
7707;SDS011;3896;48.758;8.888;2022-10-16T02:32:45;3.70;;;1.10;;
7707;SDS011;3896;48.758;8.888;2022-10-16T02:35:13;1.37;;;1.27;;
7707;SDS011;3896;48.758;8.888;2022-10-16T02:37:42;1.60;;;1.50;;
7707;SDS011;3896;48.758;8.888;2022-10-16T02:40:08;1.30;;;1.20;;
7707;SDS011;3896;48.758;8.888;2022-10-16T02:42:35;1.20;;;1.20;;
7707;SDS011;3896;48.758;8.888;2022-10-16T02:45:07;1.80;;;1.37;;
7707;SDS011;3896;48.758;8.888;2022-10-16T02:47:34;1.40;;;1.27;;
7707;SDS011;3896;48.758;8.888;2022-10-16T02:50:00;1.63;;;1.23;;
7707;SDS011;3896;48.758;8.888;2022-10-16T02:52:25;1.87;;;1.23;;
7707;SDS011;3896;48.758;8.888;2022-10-16T02:54:51;2.03;;;1.50;;
7707;SDS011;3896;48.758;8.888;2022-10-16T02:57:17;1.50;;;1.40;;
7707;SDS011;3896;48.758;8.888;2022-10-16T02:59:43;2.83;;;1.20;;
7707;SDS011;3896;48.758;8.888;2022-10-16T03:02:09;1.70;;;1.30;;
7707;SDS011;3896;48.758;8.888;2022-10-16T03:04:35;1.37;;;1.27;;
7707;SDS011;3896;48.758;8.888;2022-10-16T03:07:01;1.70;;;1.00;;
7707;SDS011;3896;48.758;8.888;2022-10-16T03:09:27;3.20;;;1.40;;
7707;SDS011;3896;48.758;8.888;2022-10-16T03:11:52;1.17;;;0.93;;
7707;SDS011;3896;48.758;8.888;2022-10-16T03:14:18;2.53;;;1.37;;
7707;SDS011;3896;48.758;8.888;2022-10-16T03:16:44;1.17;;;1.17;;
7707;SDS011;3896;48.758;8.888;2022-10-16T03:19:09;1.33;;;0.97;;
7707;SDS011;3896;48.758;8.888;2022-10-16T03:21:35;1.50;;;1.23;;
7707;SDS011;3896;48.758;8.888;2022-10-16T03:24:01;1.53;;;1.43;;
7707;SDS011;3896;48.758;8.888;2022-10-16T03:26:26;1.13;;;1.13;;
7707;SDS011;3896;48.758;8.888;2022-10-16T03:28:52;2.00;;;1.17;;
7707;SDS011;3896;48.758;8.888;2022-10-16T03:31:18;2.60;;;1.23;;
7707;SDS011;3896;48.758;8.888;2022-10-16T03:33:43;2.60;;;1.30;;
7707;SDS011;3896;48.758;8.888;2022-10-16T03:36:09;2.23;;;1.43;;
7707;SDS011;3896;48.758;8.888;2022-10-16T03:38:34;1.27;;;1.17;;
7707;SDS011;3896;48.758;8.888;2022-10-16T03:41:00;1.33;;;1.10;;
7707;SDS011;3896;48.758;8.888;2022-10-16T03:43:26;1.20;;;1.13;;
7707;SDS011;3896;48.758;8.888;2022-10-16T03:45:51;1.17;;;1.00;;
7707;SDS011;3896;48.758;8.888;2022-10-16T03:48:17;1.20;;;1.17;;
7707;SDS011;3896;48.758;8.888;2022-10-16T03:50:44;3.83;;;1.53;;
7707;SDS011;3896;48.758;8.888;2022-10-16T03:53:09;1.13;;;1.13;;
7707;SDS011;3896;48.758;8.888;2022-10-16T03:55:35;1.50;;;1.40;;
7707;SDS011;3896;48.758;8.888;2022-10-16T03:58:01;2.07;;;1.23;;
7707;SDS011;3896;48.758;8.888;2022-10-16T04:00:26;1.67;;;1.33;;
7707;SDS011;3896;48.758;8.888;2022-10-16T04:02:52;2.80;;;1.17;;
7707;SDS011;3896;48.758;8.888;2022-10-16T04:05:18;2.57;;;1.30;;
7707;SDS011;3896;48.758;8.888;2022-10-16T04:07:44;2.93;;;1.07;;
7707;SDS011;3896;48.758;8.888;2022-10-16T04:10:09;1.80;;;1.10;;
7707;SDS011;3896;48.758;8.888;2022-10-16T04:12:35;3.73;;;1.20;;
7707;SDS011;3896;48.758;8.888;2022-10-16T04:15:01;3.33;;;1.53;;
7707;SDS011;3896;48.758;8.888;2022-10-16T04:17:26;1.13;;;1.03;;
7707;SDS011;3896;48.758;8.888;2022-10-16T04:19:52;1.87;;;1.10;;
7707;SDS011;3896;48.758;8.888;2022-10-16T04:22:18;1.77;;;1.10;;
7707;SDS011;3896;48.758;8.888;2022-10-16T04:24:43;2.40;;;1.03;;
7707;SDS011;3896;48.758;8.888;2022-10-16T04:27:09;6.00;;;1.30;;
7707;SDS011;3896;48.758;8.888;2022-10-16T04:29:34;1.87;;;1.30;;
7707;SDS011;3896;48.758;8.888;2022-10-16T04:32:00;1.30;;;1.20;;
7707;SDS011;3896;48.758;8.888;2022-10-16T04:34:26;2.70;;;1.30;;
7707;SDS011;3896;48.758;8.888;2022-10-16T04:36:51;2.53;;;1.00;;
7707;SDS011;3896;48.758;8.888;2022-10-16T04:39:17;1.33;;;0.93;;
7707;SDS011;3896;48.758;8.888;2022-10-16T04:41:42;1.40;;;1.27;;
7707;SDS011;3896;48.758;8.888;2022-10-16T04:44:08;1.30;;;1.20;;
7707;SDS011;3896;48.758;8.888;2022-10-16T04:46:34;1.47;;;1.37;;
7707;SDS011;3896;48.758;8.888;2022-10-16T04:48:59;2.73;;;1.60;;
7707;SDS011;3896;48.758;8.888;2022-10-16T04:51:25;1.40;;;1.30;;
7707;SDS011;3896;48.758;8.888;2022-10-16T04:53:52;3.10;;;1.23;;
7707;SDS011;3896;48.758;8.888;2022-10-16T04:56:19;1.60;;;1.50;;
7707;SDS011;3896;48.758;8.888;2022-10-16T04:58:46;1.13;;;1.07;;
7707;SDS011;3896;48.758;8.888;2022-10-16T05:01:11;1.10;;;1.00;;
7707;SDS011;3896;48.758;8.888;2022-10-16T05:03:37;3.07;;;1.70;;
7707;SDS011;3896;48.758;8.888;2022-10-16T05:06:04;1.63;;;1.20;;
7707;SDS011;3896;48.758;8.888;2022-10-16T05:08:30;3.03;;;1.70;;
7707;SDS011;3896;48.758;8.888;2022-10-16T05:10:56;1.13;;;1.03;;
7707;SDS011;3896;48.758;8.888;2022-10-16T05:13:21;1.00;;;1.00;;
7707;SDS011;3896;48.758;8.888;2022-10-16T05:15:48;1.20;;;1.10;;
7707;SDS011;3896;48.758;8.888;2022-10-16T05:18:14;11.40;;;1.60;;
7707;SDS011;3896;48.758;8.888;2022-10-16T05:20:40;2.73;;;2.03;;
7707;SDS011;3896;48.758;8.888;2022-10-16T05:23:07;2.63;;;1.20;;
7707;SDS011;3896;48.758;8.888;2022-10-16T05:25:35;3.63;;;1.20;;
7707;SDS011;3896;48.758;8.888;2022-10-16T05:28:01;3.47;;;1.37;;
7707;SDS011;3896;48.758;8.888;2022-10-16T05:30:27;2.90;;;1.40;;
7707;SDS011;3896;48.758;8.888;2022-10-16T05:32:52;1.90;;;1.17;;
7707;SDS011;3896;48.758;8.888;2022-10-16T05:35:18;2.23;;;1.00;;
7707;SDS011;3896;48.758;8.888;2022-10-16T05:37:44;4.17;;;1.33;;
7707;SDS011;3896;48.758;8.888;2022-10-16T05:40:11;3.63;;;1.20;;
7707;SDS011;3896;48.758;8.888;2022-10-16T05:42:37;1.30;;;1.20;;
7707;SDS011;3896;48.758;8.888;2022-10-16T05:45:04;3.80;;;1.30;;
7707;SDS011;3896;48.758;8.888;2022-10-16T05:47:31;1.20;;;1.20;;
7707;SDS011;3896;48.758;8.888;2022-10-16T05:49:57;2.00;;;1.10;;
7707;SDS011;3896;48.758;8.888;2022-10-16T05:52:23;1.37;;;1.20;;
7707;SDS011;3896;48.758;8.888;2022-10-16T05:54:48;1.80;;;1.20;;
7707;SDS011;3896;48.758;8.888;2022-10-16T05:57:14;1.10;;;1.07;;
7707;SDS011;3896;48.758;8.888;2022-10-16T05:59:40;4.97;;;1.60;;
7707;SDS011;3896;48.758;8.888;2022-10-16T06:02:05;2.70;;;1.30;;
7707;SDS011;3896;48.758;8.888;2022-10-16T06:04:33;2.90;;;1.20;;
7707;SDS011;3896;48.758;8.888;2022-10-16T06:06:59;2.63;;;1.17;;
7707;SDS011;3896;48.758;8.888;2022-10-16T06:09:27;1.80;;;1.20;;
7707;SDS011;3896;48.758;8.888;2022-10-16T06:11:53;2.77;;;1.10;;
7707;SDS011;3896;48.758;8.888;2022-10-16T06:14:18;1.50;;;1.40;;
7707;SDS011;3896;48.758;8.888;2022-10-16T06:16:44;2.53;;;1.20;;
7707;SDS011;3896;48.758;8.888;2022-10-16T06:19:09;1.30;;;1.20;;
7707;SDS011;3896;48.758;8.888;2022-10-16T06:21:35;1.47;;;1.10;;
7707;SDS011;3896;48.758;8.888;2022-10-16T06:24:01;3.43;;;1.40;;
7707;SDS011;3896;48.758;8.888;2022-10-16T06:26:27;2.30;;;1.17;;
7707;SDS011;3896;48.758;8.888;2022-10-16T06:28:55;1.13;;;1.03;;
7707;SDS011;3896;48.758;8.888;2022-10-16T06:31:21;1.57;;;1.20;;
7707;SDS011;3896;48.758;8.888;2022-10-16T06:33:50;2.23;;;1.20;;
7707;SDS011;3896;48.758;8.888;2022-10-16T06:36:16;1.30;;;1.20;;
7707;SDS011;3896;48.758;8.888;2022-10-16T06:38:42;2.97;;;1.20;;
7707;SDS011;3896;48.758;8.888;2022-10-16T06:41:13;2.43;;;1.33;;
7707;SDS011;3896;48.758;8.888;2022-10-16T06:43:40;2.43;;;1.00;;
7707;SDS011;3896;48.758;8.888;2022-10-16T06:46:06;1.27;;;1.17;;
7707;SDS011;3896;48.758;8.888;2022-10-16T06:48:35;1.60;;;1.50;;
7707;SDS011;3896;48.758;8.888;2022-10-16T06:53:29;1.83;;;1.20;;
7707;SDS011;3896;48.758;8.888;2022-10-16T06:55:56;1.10;;;1.10;;
7707;SDS011;3896;48.758;8.888;2022-10-16T06:58:22;1.60;;;1.00;;
7707;SDS011;3896;48.758;8.888;2022-10-16T07:00:49;1.63;;;1.00;;
7707;SDS011;3896;48.758;8.888;2022-10-16T07:03:21;2.03;;;1.50;;
7707;SDS011;3896;48.758;8.888;2022-10-16T07:05:46;3.20;;;1.50;;
7707;SDS011;3896;48.758;8.888;2022-10-16T07:08:12;2.80;;;1.40;;
7707;SDS011;3896;48.758;8.888;2022-10-16T07:10:37;1.40;;;1.30;;
7707;SDS011;3896;48.758;8.888;2022-10-16T07:13:03;3.27;;;1.27;;
7707;SDS011;3896;48.758;8.888;2022-10-16T07:15:29;1.70;;;1.40;;
7707;SDS011;3896;48.758;8.888;2022-10-16T07:17:55;1.87;;;1.30;;
7707;SDS011;3896;48.758;8.888;2022-10-16T07:20:21;3.40;;;1.60;;
7707;SDS011;3896;48.758;8.888;2022-10-16T07:22:47;1.30;;;1.20;;
7707;SDS011;3896;48.758;8.888;2022-10-16T07:25:13;1.90;;;1.67;;
7707;SDS011;3896;48.758;8.888;2022-10-16T07:27:38;4.30;;;1.67;;
7707;SDS011;3896;48.758;8.888;2022-10-16T07:30:04;1.20;;;1.20;;
7707;SDS011;3896;48.758;8.888;2022-10-16T07:32:31;1.20;;;1.10;;
7707;SDS011;3896;48.758;8.888;2022-10-16T07:34:57;1.00;;;1.00;;
7707;SDS011;3896;48.758;8.888;2022-10-16T07:37:22;3.57;;;1.20;;
7707;SDS011;3896;48.758;8.888;2022-10-16T07:39:48;2.97;;;1.20;;
7707;SDS011;3896;48.758;8.888;2022-10-16T07:42:14;2.77;;;1.53;;
7707;SDS011;3896;48.758;8.888;2022-10-16T07:44:39;1.20;;;1.10;;
7707;SDS011;3896;48.758;8.888;2022-10-16T07:47:06;1.70;;;1.40;;
7707;SDS011;3896;48.758;8.888;2022-10-16T07:49:32;2.17;;;1.53;;
7707;SDS011;3896;48.758;8.888;2022-10-16T07:51:57;1.40;;;1.30;;
7707;SDS011;3896;48.758;8.888;2022-10-16T07:54:23;1.20;;;1.07;;
7707;SDS011;3896;48.758;8.888;2022-10-16T07:56:48;1.27;;;1.20;;
7707;SDS011;3896;48.758;8.888;2022-10-16T07:59:14;1.30;;;1.07;;
7707;SDS011;3896;48.758;8.888;2022-10-16T08:01:40;2.80;;;1.40;;
7707;SDS011;3896;48.758;8.888;2022-10-16T08:04:07;1.20;;;1.20;;
7707;SDS011;3896;48.758;8.888;2022-10-16T08:06:37;1.43;;;1.33;;
7707;SDS011;3896;48.758;8.888;2022-10-16T08:09:05;1.83;;;1.43;;
7707;SDS011;3896;48.758;8.888;2022-10-16T08:11:31;1.57;;;1.33;;
7707;SDS011;3896;48.758;8.888;2022-10-16T08:13:56;1.50;;;1.23;;
7707;SDS011;3896;48.758;8.888;2022-10-16T08:16:22;1.30;;;1.20;;
7707;SDS011;3896;48.758;8.888;2022-10-16T08:18:48;1.37;;;1.23;;
7707;SDS011;3896;48.758;8.888;2022-10-16T08:21:17;1.27;;;1.20;;
7707;SDS011;3896;48.758;8.888;2022-10-16T08:23:44;2.57;;;1.23;;
7707;SDS011;3896;48.758;8.888;2022-10-16T08:26:09;1.60;;;1.40;;
7707;SDS011;3896;48.758;8.888;2022-10-16T08:28:36;1.50;;;1.40;;
7707;SDS011;3896;48.758;8.888;2022-10-16T08:31:06;3.13;;;1.53;;
7707;SDS011;3896;48.758;8.888;2022-10-16T08:33:38;1.20;;;1.20;;
7707;SDS011;3896;48.758;8.888;2022-10-16T08:36:07;1.37;;;1.10;;
7707;SDS011;3896;48.758;8.888;2022-10-16T08:38:34;2.93;;;1.30;;
7707;SDS011;3896;48.758;8.888;2022-10-16T08:43:39;4.70;;;1.50;;
7707;SDS011;3896;48.758;8.888;2022-10-16T08:46:33;1.20;;;1.10;;
7707;SDS011;3896;48.758;8.888;2022-10-16T08:49:21;1.37;;;1.27;;
7707;SDS011;3896;48.758;8.888;2022-10-16T08:51:49;2.07;;;1.40;;
7707;SDS011;3896;48.758;8.888;2022-10-16T08:54:34;1.07;;;0.97;;
7707;SDS011;3896;48.758;8.888;2022-10-16T08:57:13;2.17;;;1.30;;
7707;SDS011;3896;48.758;8.888;2022-10-16T08:59:45;3.33;;;1.33;;
7707;SDS011;3896;48.758;8.888;2022-10-16T09:08:11;3.63;;;2.63;;
7707;SDS011;3896;48.758;8.888;2022-10-16T09:13:40;1.50;;;1.20;;
7707;SDS011;3896;48.758;8.888;2022-10-16T09:16:18;1.77;;;1.10;;
7707;SDS011;3896;48.758;8.888;2022-10-16T09:21:36;1.60;;;1.50;;
7707;SDS011;3896;48.758;8.888;2022-10-16T09:24:16;1.70;;;1.00;;
7707;SDS011;3896;48.758;8.888;2022-10-16T09:26:44;1.40;;;1.00;;
7707;SDS011;3896;48.758;8.888;2022-10-16T09:29:17;1.47;;;1.07;;
7707;SDS011;3896;48.758;8.888;2022-10-16T09:31:47;3.10;;;1.07;;
7707;SDS011;3896;48.758;8.888;2022-10-16T09:34:24;6.20;;;1.63;;
7707;SDS011;3896;48.758;8.888;2022-10-16T09:36:56;2.10;;;1.10;;
7707;SDS011;3896;48.758;8.888;2022-10-16T09:39:24;2.07;;;1.20;;
7707;SDS011;3896;48.758;8.888;2022-10-16T09:41:50;1.77;;;1.20;;
7707;SDS011;3896;48.758;8.888;2022-10-16T09:44:21;2.20;;;1.20;;
7707;SDS011;3896;48.758;8.888;2022-10-16T09:47:02;2.27;;;1.00;;
7707;SDS011;3896;48.758;8.888;2022-10-16T09:49:29;1.90;;;1.20;;
7707;SDS011;3896;48.758;8.888;2022-10-16T09:52:13;2.93;;;1.30;;
7707;SDS011;3896;48.758;8.888;2022-10-16T09:54:53;1.70;;;1.60;;
7707;SDS011;3896;48.758;8.888;2022-10-16T09:57:23;2.53;;;1.30;;
7707;SDS011;3896;48.758;8.888;2022-10-16T09:59:50;1.40;;;1.30;;
7707;SDS011;3896;48.758;8.888;2022-10-16T10:02:39;1.63;;;1.17;;
7707;SDS011;3896;48.758;8.888;2022-10-16T10:05:05;1.03;;;1.03;;
7707;SDS011;3896;48.758;8.888;2022-10-16T10:07:42;1.53;;;0.97;;
7707;SDS011;3896;48.758;8.888;2022-10-16T10:10:21;0.90;;;0.90;;
7707;SDS011;3896;48.758;8.888;2022-10-16T10:12:48;1.20;;;1.10;;
7707;SDS011;3896;48.758;8.888;2022-10-16T10:15:14;0.77;;;0.77;;
7707;SDS011;3896;48.758;8.888;2022-10-16T10:17:47;1.30;;;1.20;;
7707;SDS011;3896;48.758;8.888;2022-10-16T10:20:21;3.23;;;1.60;;
7707;SDS011;3896;48.758;8.888;2022-10-16T10:22:49;3.47;;;1.40;;
7707;SDS011;3896;48.758;8.888;2022-10-16T10:25:24;1.10;;;1.03;;
7707;SDS011;3896;48.758;8.888;2022-10-16T10:30:56;1.03;;;1.03;;
7707;SDS011;3896;48.758;8.888;2022-10-16T10:33:58;1.10;;;1.10;;
7707;SDS011;3896;48.758;8.888;2022-10-16T10:36:39;2.57;;;1.03;;
7707;SDS011;3896;48.758;8.888;2022-10-16T10:41:39;1.00;;;1.00;;
7707;SDS011;3896;48.758;8.888;2022-10-16T10:52:55;2.23;;;1.30;;
7707;SDS011;3896;48.758;8.888;2022-10-16T10:58:48;1.37;;;1.13;;
7707;SDS011;3896;48.758;8.888;2022-10-16T11:01:22;2.43;;;1.10;;
7707;SDS011;3896;48.758;8.888;2022-10-16T11:04:12;3.07;;;1.20;;
7707;SDS011;3896;48.758;8.888;2022-10-16T11:06:55;0.93;;;0.93;;
7707;SDS011;3896;48.758;8.888;2022-10-16T11:09:28;1.20;;;1.20;;
7707;SDS011;3896;48.758;8.888;2022-10-16T11:12:07;2.03;;;1.07;;
7707;SDS011;3896;48.758;8.888;2022-10-16T11:14:44;3.60;;;1.70;;
7707;SDS011;3896;48.758;8.888;2022-10-16T11:17:29;2.13;;;1.53;;
7707;SDS011;3896;48.758;8.888;2022-10-16T11:20:05;1.70;;;1.30;;
7707;SDS011;3896;48.758;8.888;2022-10-16T11:23:23;2.23;;;1.00;;
7707;SDS011;3896;48.758;8.888;2022-10-16T11:25:46;1.03;;;1.03;;
7707;SDS011;3896;48.758;8.888;2022-10-16T11:28:17;2.40;;;1.20;;
7707;SDS011;3896;48.758;8.888;2022-10-16T11:33:57;1.10;;;0.80;;
7707;SDS011;3896;48.758;8.888;2022-10-16T11:36:58;1.00;;;1.00;;
7707;SDS011;3896;48.758;8.888;2022-10-16T11:39:35;2.30;;;0.80;;
7707;SDS011;3896;48.758;8.888;2022-10-16T11:50:54;1.57;;;1.40;;
7707;SDS011;3896;48.758;8.888;2022-10-16T11:56:17;1.30;;;1.20;;
7707;SDS011;3896;48.758;8.888;2022-10-16T11:58:51;1.93;;;1.03;;
7707;SDS011;3896;48.758;8.888;2022-10-16T12:08:52;2.63;;;1.17;;
7707;SDS011;3896;48.758;8.888;2022-10-16T12:11:22;3.67;;;1.13;;
7707;SDS011;3896;48.758;8.888;2022-10-16T12:13:51;1.43;;;1.13;;
7707;SDS011;3896;48.758;8.888;2022-10-16T12:16:19;1.23;;;1.20;;
7707;SDS011;3896;48.758;8.888;2022-10-16T12:18:47;1.30;;;1.20;;
7707;SDS011;3896;48.758;8.888;2022-10-16T12:21:14;1.77;;;1.10;;
7707;SDS011;3896;48.758;8.888;2022-10-16T12:23:50;2.40;;;1.20;;
7707;SDS011;3896;48.758;8.888;2022-10-16T12:26:52;1.00;;;1.00;;
7707;SDS011;3896;48.758;8.888;2022-10-16T12:31:54;0.90;;;0.90;;
7707;SDS011;3896;48.758;8.888;2022-10-16T12:36:52;1.43;;;1.03;;
7707;SDS011;3896;48.758;8.888;2022-10-16T12:39:20;1.50;;;1.10;;
7707;SDS011;3896;48.758;8.888;2022-10-16T12:41:48;2.93;;;1.30;;
7707;SDS011;3896;48.758;8.888;2022-10-16T12:44:27;6.57;;;1.70;;
7707;SDS011;3896;48.758;8.888;2022-10-16T12:46:58;0.90;;;0.90;;
7707;SDS011;3896;48.758;8.888;2022-10-16T12:49:31;2.67;;;1.00;;
7707;SDS011;3896;48.758;8.888;2022-10-16T12:52:02;2.00;;;1.10;;
7707;SDS011;3896;48.758;8.888;2022-10-16T12:54:29;1.80;;;1.40;;
7707;SDS011;3896;48.758;8.888;2022-10-16T13:19:32;3.53;;;1.60;;
7707;SDS011;3896;48.758;8.888;2022-10-16T13:30:24;1.77;;;1.40;;
7707;SDS011;3896;48.758;8.888;2022-10-16T13:32:58;1.73;;;1.30;;
7707;SDS011;3896;48.758;8.888;2022-10-16T13:35:30;1.27;;;1.27;;
7707;SDS011;3896;48.758;8.888;2022-10-16T13:38:31;1.70;;;1.40;;
7707;SDS011;3896;48.758;8.888;2022-10-16T13:40:56;1.90;;;1.80;;
7707;SDS011;3896;48.758;8.888;2022-10-16T13:46:05;2.90;;;1.80;;
7707;SDS011;3896;48.758;8.888;2022-10-16T13:48:41;2.60;;;1.97;;
7707;SDS011;3896;48.758;8.888;2022-10-16T13:53:41;2.63;;;2.00;;
7707;SDS011;3896;48.758;8.888;2022-10-16T13:56:10;3.53;;;1.80;;
7707;SDS011;3896;48.758;8.888;2022-10-16T13:58:37;3.53;;;2.03;;
7707;SDS011;3896;48.758;8.888;2022-10-16T14:01:04;2.53;;;1.57;;
7707;SDS011;3896;48.758;8.888;2022-10-16T14:03:41;3.80;;;1.70;;
7707;SDS011;3896;48.758;8.888;2022-10-16T14:06:11;4.07;;;1.60;;
7707;SDS011;3896;48.758;8.888;2022-10-16T14:08:41;2.30;;;1.37;;
7707;SDS011;3896;48.758;8.888;2022-10-16T14:11:09;2.47;;;1.50;;
7707;SDS011;3896;48.758;8.888;2022-10-16T14:13:53;1.77;;;1.50;;
7707;SDS011;3896;48.758;8.888;2022-10-16T14:16:23;1.90;;;1.17;;
7707;SDS011;3896;48.758;8.888;2022-10-16T14:18:56;3.90;;;2.00;;
7707;SDS011;3896;48.758;8.888;2022-10-16T14:21:27;1.50;;;1.37;;
7707;SDS011;3896;48.758;8.888;2022-10-16T14:23:53;2.07;;;1.27;;
7707;SDS011;3896;48.758;8.888;2022-10-16T14:26:20;2.03;;;1.30;;
7707;SDS011;3896;48.758;8.888;2022-10-16T14:28:51;1.83;;;1.07;;
7707;SDS011;3896;48.758;8.888;2022-10-16T14:31:39;2.23;;;1.10;;
7707;SDS011;3896;48.758;8.888;2022-10-16T14:34:28;2.60;;;1.60;;
7707;SDS011;3896;48.758;8.888;2022-10-16T14:36:54;3.93;;;1.40;;
7707;SDS011;3896;48.758;8.888;2022-10-16T14:39:21;1.70;;;1.57;;
7707;SDS011;3896;48.758;8.888;2022-10-16T14:41:49;7.13;;;1.73;;
7707;SDS011;3896;48.758;8.888;2022-10-16T14:44:19;4.00;;;1.40;;
7707;SDS011;3896;48.758;8.888;2022-10-16T14:46:51;1.67;;;1.50;;
7707;SDS011;3896;48.758;8.888;2022-10-16T14:49:18;4.63;;;1.47;;
7707;SDS011;3896;48.758;8.888;2022-10-16T14:51:45;2.10;;;1.80;;
7707;SDS011;3896;48.758;8.888;2022-10-16T14:54:12;1.60;;;1.40;;
7707;SDS011;3896;48.758;8.888;2022-10-16T14:56:45;3.27;;;1.50;;
7707;SDS011;3896;48.758;8.888;2022-10-16T14:59:24;2.93;;;1.43;;
7707;SDS011;3896;48.758;8.888;2022-10-16T15:01:53;4.90;;;1.40;;
7707;SDS011;3896;48.758;8.888;2022-10-16T15:04:18;2.67;;;1.43;;
7707;SDS011;3896;48.758;8.888;2022-10-16T15:06:44;1.47;;;1.37;;
7707;SDS011;3896;48.758;8.888;2022-10-16T15:09:10;3.83;;;1.80;;
7707;SDS011;3896;48.758;8.888;2022-10-16T15:11:36;5.50;;;1.73;;
7707;SDS011;3896;48.758;8.888;2022-10-16T15:14:02;2.97;;;1.50;;
7707;SDS011;3896;48.758;8.888;2022-10-16T15:16:28;1.77;;;1.67;;
7707;SDS011;3896;48.758;8.888;2022-10-16T15:18:54;3.93;;;1.70;;
7707;SDS011;3896;48.758;8.888;2022-10-16T15:21:22;3.77;;;1.90;;
7707;SDS011;3896;48.758;8.888;2022-10-16T15:23:49;2.77;;;1.97;;
7707;SDS011;3896;48.758;8.888;2022-10-16T15:26:15;3.20;;;1.80;;
7707;SDS011;3896;48.758;8.888;2022-10-16T15:28:41;4.60;;;2.20;;
7707;SDS011;3896;48.758;8.888;2022-10-16T15:31:07;2.47;;;1.77;;
7707;SDS011;3896;48.758;8.888;2022-10-16T15:33:32;6.20;;;1.83;;
7707;SDS011;3896;48.758;8.888;2022-10-16T15:36:00;3.67;;;1.90;;
7707;SDS011;3896;48.758;8.888;2022-10-16T15:38:26;2.70;;;1.40;;
7707;SDS011;3896;48.758;8.888;2022-10-16T15:40:53;3.13;;;1.97;;
7707;SDS011;3896;48.758;8.888;2022-10-16T15:43:18;1.43;;;1.33;;
7707;SDS011;3896;48.758;8.888;2022-10-16T15:45:46;3.90;;;1.53;;
7707;SDS011;3896;48.758;8.888;2022-10-16T15:48:24;1.70;;;1.60;;
7707;SDS011;3896;48.758;8.888;2022-10-16T15:50:49;5.30;;;1.80;;
7707;SDS011;3896;48.758;8.888;2022-10-16T15:53:15;3.20;;;2.00;;
7707;SDS011;3896;48.758;8.888;2022-10-16T15:55:41;3.27;;;1.60;;
7707;SDS011;3896;48.758;8.888;2022-10-16T15:58:06;3.47;;;1.90;;
7707;SDS011;3896;48.758;8.888;2022-10-16T16:00:32;1.70;;;1.60;;
7707;SDS011;3896;48.758;8.888;2022-10-16T16:02:58;3.00;;;1.87;;
7707;SDS011;3896;48.758;8.888;2022-10-16T16:05:24;2.97;;;1.60;;
7707;SDS011;3896;48.758;8.888;2022-10-16T16:07:50;6.20;;;3.00;;
7707;SDS011;3896;48.758;8.888;2022-10-16T16:10:16;5.13;;;2.00;;
7707;SDS011;3896;48.758;8.888;2022-10-16T16:12:42;7.03;;;1.87;;
7707;SDS011;3896;48.758;8.888;2022-10-16T16:15:08;2.43;;;2.00;;
7707;SDS011;3896;48.758;8.888;2022-10-16T16:17:34;2.87;;;2.20;;
7707;SDS011;3896;48.758;8.888;2022-10-16T16:20:01;5.43;;;1.70;;
7707;SDS011;3896;48.758;8.888;2022-10-16T16:22:28;2.50;;;2.07;;
7707;SDS011;3896;48.758;8.888;2022-10-16T16:24:54;4.07;;;1.97;;
7707;SDS011;3896;48.758;8.888;2022-10-16T16:27:19;4.10;;;1.90;;
7707;SDS011;3896;48.758;8.888;2022-10-16T16:29:46;5.40;;;1.90;;
7707;SDS011;3896;48.758;8.888;2022-10-16T16:32:12;3.17;;;1.83;;
7707;SDS011;3896;48.758;8.888;2022-10-16T16:34:38;3.40;;;1.73;;
7707;SDS011;3896;48.758;8.888;2022-10-16T16:37:03;3.63;;;2.10;;
7707;SDS011;3896;48.758;8.888;2022-10-16T16:39:29;3.70;;;2.40;;
7707;SDS011;3896;48.758;8.888;2022-10-16T16:41:55;9.10;;;2.20;;
7707;SDS011;3896;48.758;8.888;2022-10-16T16:44:23;5.43;;;2.30;;
7707;SDS011;3896;48.758;8.888;2022-10-16T16:46:48;5.30;;;2.27;;
7707;SDS011;3896;48.758;8.888;2022-10-16T16:49:14;4.23;;;2.27;;
7707;SDS011;3896;48.758;8.888;2022-10-16T16:51:40;3.53;;;1.90;;
7707;SDS011;3896;48.758;8.888;2022-10-16T16:54:06;4.83;;;2.20;;
7707;SDS011;3896;48.758;8.888;2022-10-16T16:56:33;2.33;;;2.13;;
7707;SDS011;3896;48.758;8.888;2022-10-16T16:58:59;3.43;;;1.87;;
7707;SDS011;3896;48.758;8.888;2022-10-16T17:01:26;3.57;;;2.20;;
7707;SDS011;3896;48.758;8.888;2022-10-16T17:03:54;4.07;;;1.97;;
7707;SDS011;3896;48.758;8.888;2022-10-16T17:06:21;8.83;;;2.17;;
7707;SDS011;3896;48.758;8.888;2022-10-16T17:08:48;6.27;;;2.20;;
7707;SDS011;3896;48.758;8.888;2022-10-16T17:11:16;7.23;;;2.23;;
7707;SDS011;3896;48.758;8.888;2022-10-16T17:13:52;5.47;;;2.10;;
7707;SDS011;3896;48.758;8.888;2022-10-16T17:16:20;6.10;;;1.60;;
7707;SDS011;3896;48.758;8.888;2022-10-16T17:18:46;5.37;;;1.90;;
7707;SDS011;3896;48.758;8.888;2022-10-16T17:21:12;4.00;;;1.77;;
7707;SDS011;3896;48.758;8.888;2022-10-16T17:23:38;5.93;;;2.20;;
7707;SDS011;3896;48.758;8.888;2022-10-16T17:26:04;5.90;;;2.33;;
7707;SDS011;3896;48.758;8.888;2022-10-16T17:28:37;2.97;;;1.80;;
7707;SDS011;3896;48.758;8.888;2022-10-16T17:31:14;4.90;;;2.10;;